Terminal Aerodrome Forecast
Issued by NWS Sterling, VA

Current Version | Previous Version | Graphics & Text | Print | Product List | Glossary On
Versions: 1 2 3 4 5 6 7 8 9 10 11 12 13 14 15 16 17 18 19 20 21 22 23 24 25 26 27
094
FTUS41 KLWX 300848 AAA
TAFIAD
TAF AMD
KIAD 300848Z 3009/0112 05004KT 6SM -DZ BR OVC008
     FM301200 07005KT P6SM OVC008
     FM301600 09005KT P6SM BKN015
     FM302100 15006KT P6SM OVC035
     FM010000 14006KT 5SM -RA BR OVC020
     FM010200 14008KT 3SM RA BR OVC008
     FM010900 14009KT 3SM RA BR OVC003=

USA.gov is the U.S. government's official web portal to all federal, state and local government web resources and services.